sensor_id;sensor_type;location;lat;lon;timestamp;pressure;altitude;pressure_sealevel;temperature;humidity
41312;BME280;27061;41.648;24.568;2023-04-06T00:01:18;85220.94;;;3.40;71.12
41312;BME280;27061;41.648;24.568;2023-04-06T00:03:46;85187.38;;;3.11;71.91
41312;BME280;27061;41.648;24.568;2023-04-06T00:06:13;85220.94;;;3.36;71.48
41312;BME280;27061;41.648;24.568;2023-04-06T00:08:42;85225.72;;;3.40;71.47
41312;BME280;27061;41.648;24.568;2023-04-06T00:11:11;85188.06;;;3.18;68.74
41312;BME280;27061;41.648;24.568;2023-04-06T00:13:38;85198.34;;;3.31;68.48
41312;BME280;27061;41.648;24.568;2023-04-06T00:16:05;85188.78;;;3.22;69.44
41312;BME280;27061;41.648;24.568;2023-04-06T00:18:32;85207.25;;;3.32;69.96
41312;BME280;27061;41.648;24.568;2023-04-06T00:20:59;85214.09;;;3.35;69.84
41312;BME280;27061;41.648;24.568;2023-04-06T00:23:26;85218.19;;;3.30;69.59
41312;BME280;27061;41.648;24.568;2023-04-06T00:25:53;85200.34;;;3.03;71.61
41312;BME280;27061;41.648;24.568;2023-04-06T00:28:21;85208.59;;;3.13;72.57
41312;BME280;27061;41.648;24.568;2023-04-06T00:30:52;85201.75;;;3.16;69.96
41312;BME280;27061;41.648;24.568;2023-04-06T00:33:22;85197.63;;;3.11;69.71
41312;BME280;27061;41.648;24.568;2023-04-06T00:35:50;85141.47;;;2.65;70.79
41312;BME280;27061;41.648;24.568;2023-04-06T00:38:17;85201.72;;;3.00;71.85
41312;BME280;27061;41.648;24.568;2023-04-06T00:40:45;85161.34;;;2.74;71.99
41312;BME280;27061;41.648;24.568;2023-04-06T00:43:12;85156.56;;;2.74;72.04
41312;BME280;27061;41.648;24.568;2023-04-06T00:45:41;85183.94;;;2.94;71.03
41312;BME280;27061;41.648;24.568;2023-04-06T00:48:09;85146.28;;;2.71;71.23
41312;BME280;27061;41.648;24.568;2023-04-06T00:50:36;85190.78;;;3.04;68.98
41312;BME280;27061;41.648;24.568;2023-04-06T00:53:03;85131.22;;;2.60;69.69
41312;BME280;27061;41.648;24.568;2023-04-06T00:55:30;85168.88;;;2.87;70.62
41312;BME280;27061;41.648;24.568;2023-04-06T00:57:59;85153.81;;;2.72;70.71
41312;BME280;27061;41.648;24.568;2023-04-06T01:00:34;85177.09;;;2.96;71.21
41312;BME280;27061;41.648;24.568;2023-04-06T01:03:02;85147.66;;;2.72;70.58
41312;BME280;27061;41.648;24.568;2023-04-06T01:05:37;85144.19;;;2.57;69.85
41312;BME280;27061;41.648;24.568;2023-04-06T01:08:15;85172.28;;;2.90;68.59
41312;BME280;27061;41.648;24.568;2023-04-06T01:10:42;85174.34;;;2.83;70.20
41312;BME280;27061;41.648;24.568;2023-04-06T01:13:22;85140.75;;;2.54;69.95
41312;BME280;27061;41.648;24.568;2023-04-06T01:15:56;85113.44;;;2.46;68.52
41312;BME280;27061;41.648;24.568;2023-04-06T01:18:40;85162.00;;;2.78;69.23
41312;BME280;27061;41.648;24.568;2023-04-06T01:21:16;85152.44;;;2.73;70.23
41312;BME280;27061;41.648;24.568;2023-04-06T01:24:00;85151.06;;;2.66;72.09
41312;BME280;27061;41.648;24.568;2023-04-06T01:26:35;85133.25;;;2.57;68.62
41312;BME280;27061;41.648;24.568;2023-04-06T01:29:06;85127.81;;;2.53;69.36
41312;BME280;27061;41.648;24.568;2023-04-06T01:31:33;85149.03;;;2.65;69.10
41312;BME280;27061;41.648;24.568;2023-04-06T01:34:00;85120.97;;;2.52;69.80
41312;BME280;27061;41.648;24.568;2023-04-06T01:36:27;85096.34;;;2.40;69.43
41312;BME280;27061;41.648;24.568;2023-04-06T01:39:04;85131.91;;;2.66;69.45
41312;BME280;27061;41.648;24.568;2023-04-06T01:41:35;85103.16;;;2.39;68.70
41312;BME280;27061;41.648;24.568;2023-04-06T01:44:02;85105.91;;;2.41;69.13
41312;BME280;27061;41.648;24.568;2023-04-06T01:46:30;85099.03;;;2.34;69.31
41312;BME280;27061;41.648;24.568;2023-04-06T01:48:59;85115.47;;;2.44;69.66
41312;BME280;27061;41.648;24.568;2023-04-06T01:51:35;85096.31;;;2.36;68.15
41312;BME280;27061;41.648;24.568;2023-04-06T01:54:05;85137.41;;;2.64;69.04
41312;BME280;27061;41.648;24.568;2023-04-06T01:56:55;84977.97;;;1.44;69.62
41312;BME280;27061;41.648;24.568;2023-04-06T01:59:57;85088.09;;;2.28;67.42
41312;BME280;27061;41.648;24.568;2023-04-06T02:02:38;85130.53;;;2.53;68.59
41312;BME280;27061;41.648;24.568;2023-04-06T02:05:12;85151.00;;;2.50;69.54
41312;BME280;27061;41.648;24.568;2023-04-06T02:07:40;85133.25;;;2.51;70.01
41312;BME280;27061;41.648;24.568;2023-04-06T02:10:12;85120.97;;;2.52;69.04
41312;BME280;27061;41.648;24.568;2023-04-06T02:12:40;85083.31;;;2.20;68.90
41312;BME280;27061;41.648;24.568;2023-04-06T02:15:10;85118.19;;;2.38;69.46
41312;BME280;27061;41.648;24.568;2023-04-06T02:17:40;85127.78;;;2.43;68.88
41312;BME280;27061;41.648;24.568;2023-04-06T02:20:09;85127.09;;;2.42;67.98
41312;BME280;27061;41.648;24.568;2023-04-06T02:22:36;85135.28;;;2.46;68.48
41312;BME280;27061;41.648;24.568;2023-04-06T02:25:03;85135.97;;;2.47;68.73
41312;BME280;27061;41.648;24.568;2023-04-06T02:27:30;85134.59;;;2.44;69.17
41312;BME280;27061;41.648;24.568;2023-04-06T02:29:57;85133.91;;;2.39;69.12
41312;BME280;27061;41.648;24.568;2023-04-06T02:32:24;85055.19;;;1.81;68.65
41312;BME280;27061;41.648;24.568;2023-04-06T02:34:52;85122.94;;;2.27;69.75
41312;BME280;27061;41.648;24.568;2023-04-06T02:37:20;85062.03;;;1.80;69.39
41312;BME280;27061;41.648;24.568;2023-04-06T02:39:48;85120.16;;;2.15;70.09
41312;BME280;27061;41.648;24.568;2023-04-06T02:42:15;85134.56;;;2.34;69.99
41312;BME280;27061;41.648;24.568;2023-04-06T02:44:46;85131.84;;;2.32;69.59
41312;BME280;27061;41.648;24.568;2023-04-06T02:47:13;85098.28;;;2.07;70.23
41312;BME280;27061;41.648;24.568;2023-04-06T02:49:45;85089.38;;;2.04;70.14
41312;BME280;27061;41.648;24.568;2023-04-06T02:52:15;85096.25;;;2.13;70.16
41312;BME280;27061;41.648;24.568;2023-04-06T02:54:45;84943.00;;;1.00;70.36
41312;BME280;27061;41.648;24.568;2023-04-06T02:57:12;85119.50;;;2.18;70.12
41312;BME280;27061;41.648;24.568;2023-04-06T02:59:43;85067.50;;;1.90;70.63
41312;BME280;27061;41.648;24.568;2023-04-06T03:02:21;85074.34;;;1.93;71.18
41312;BME280;27061;41.648;24.568;2023-04-06T03:04:49;85108.56;;;2.18;71.08
41312;BME280;27061;41.648;24.568;2023-04-06T03:07:25;85091.47;;;2.10;70.72
41312;BME280;27061;41.648;24.568;2023-04-06T03:09:52;85093.53;;;2.11;68.92
41312;BME280;27061;41.648;24.568;2023-04-06T03:12:19;85036.72;;;1.71;68.42
41312;BME280;27061;41.648;24.568;2023-04-06T03:15:21;85137.28;;;2.36;68.95
41312;BME280;27061;41.648;24.568;2023-04-06T03:17:59;85088.03;;;2.05;68.35
41312;BME280;27061;41.648;24.568;2023-04-06T03:20:40;85135.25;;;2.30;69.05
41312;BME280;27061;41.648;24.568;2023-04-06T03:23:08;85121.56;;;2.26;70.07
41312;BME280;27061;41.648;24.568;2023-04-06T03:25:39;85114.69;;;2.09;70.11
41312;BME280;27061;41.648;24.568;2023-04-06T03:28:09;85068.13;;;1.80;70.52
41312;BME280;27061;41.648;24.568;2023-04-06T03:30:45;85133.13;;;2.16;68.92
41312;BME280;27061;41.648;24.568;2023-04-06T03:33:15;85129.00;;;2.13;68.21
41312;BME280;27061;41.648;24.568;2023-04-06T03:35:50;85118.16;;;2.22;69.18
41312;BME280;27061;41.648;24.568;2023-04-06T03:38:18;85101.66;;;2.03;69.54
41312;BME280;27061;41.648;24.568;2023-04-06T03:40:45;85070.88;;;1.78;70.29
41312;BME280;27061;41.648;24.568;2023-04-06T03:43:12;85120.81;;;2.13;70.06
41312;BME280;27061;41.648;24.568;2023-04-06T03:45:39;85035.28;;;1.52;70.49
41312;BME280;27061;41.648;24.568;2023-04-06T03:48:07;85123.56;;;2.11;70.49
41312;BME280;27061;41.648;24.568;2023-04-06T03:50:36;85120.84;;;2.15;71.34
41312;BME280;27061;41.648;24.568;2023-04-06T03:53:04;85085.25;;;1.91;71.43
41312;BME280;27061;41.648;24.568;2023-04-06T03:55:32;85096.16;;;1.89;71.87
41312;BME280;27061;41.648;24.568;2023-04-06T03:57:59;85129.06;;;2.19;72.11
41312;BME280;27061;41.648;24.568;2023-04-06T04:00:26;85071.56;;;1.83;71.20
41312;BME280;27061;41.648;24.568;2023-04-06T04:02:54;85112.59;;;2.05;71.24
41312;BME280;27061;41.648;24.568;2023-04-06T04:05:21;85098.94;;;2.01;71.99
41312;BME280;27061;41.648;24.568;2023-04-06T04:07:52;85121.47;;;2.06;71.25
41312;BME280;27061;41.648;24.568;2023-04-06T04:10:23;85059.22;;;1.66;71.43
41312;BME280;27061;41.648;24.568;2023-04-06T04:12:51;85107.84;;;2.06;71.30
41312;BME280;27061;41.648;24.568;2023-04-06T04:15:18;85129.06;;;2.19;71.20
41312;BME280;27061;41.648;24.568;2023-04-06T04:17:46;85096.22;;;1.99;71.10
41312;BME280;27061;41.648;24.568;2023-04-06T04:20:16;85087.97;;;1.93;71.00
41312;BME280;27061;41.648;24.568;2023-04-06T04:22:43;85103.72;;;2.03;70.58
41312;BME280;27061;41.648;24.568;2023-04-06T04:25:11;85080.44;;;1.83;71.79
41312;BME280;27061;41.648;24.568;2023-04-06T04:27:43;85129.72;;;2.16;71.92
41312;BME280;27061;41.648;24.568;2023-04-06T04:30:11;85110.53;;;2.04;71.61
41312;BME280;27061;41.648;24.568;2023-04-06T04:32:38;85097.56;;;1.96;71.25
41312;BME280;27061;41.648;24.568;2023-04-06T04:35:08;85127.66;;;2.16;71.25
41312;BME280;27061;41.648;24.568;2023-04-06T04:37:40;85122.22;;;2.20;70.24
41312;BME280;27061;41.648;24.568;2023-04-06T04:40:08;85115.38;;;2.11;70.18
41312;BME280;27061;41.648;24.568;2023-04-06T04:43:02;85120.16;;;2.17;69.52
41312;BME280;27061;41.648;24.568;2023-04-06T04:45:32;85129.06;;;2.22;69.23
41312;BME280;27061;41.648;24.568;2023-04-06T04:48:08;85092.06;;;1.86;69.92
41312;BME280;27061;41.648;24.568;2023-04-06T04:50:47;85123.53;;;2.05;70.74
41312;BME280;27061;41.648;24.568;2023-04-06T04:53:15;85128.31;;;2.13;70.66
41312;BME280;27061;41.648;24.568;2023-04-06T04:55:43;85125.63;;;2.23;68.99
41312;BME280;27061;41.648;24.568;2023-04-06T04:58:12;85124.31;;;2.34;69.42
41312;BME280;27061;41.648;24.568;2023-04-06T05:00:52;85127.69;;;2.22;71.18
41312;BME280;27061;41.648;24.568;2023-04-06T05:03:24;85118.13;;;2.17;73.40
41312;BME280;27061;41.648;24.568;2023-04-06T05:06:01;85114.03;;;2.18;72.71
41312;BME280;27061;41.648;24.568;2023-04-06T05:08:32;85112.63;;;2.07;72.65
41312;BME280;27061;41.648;24.568;2023-04-06T05:10:59;85127.63;;;2.04;73.23
41312;BME280;27061;41.648;24.568;2023-04-06T05:13:30;85122.84;;;2.05;73.78
41312;BME280;27061;41.648;24.568;2023-04-06T05:16:01;85116.72;;;2.12;75.58
41312;BME280;27061;41.648;24.568;2023-04-06T05:18:31;85122.22;;;2.18;76.88
41312;BME280;27061;41.648;24.568;2023-04-06T05:20:59;85048.34;;;1.74;78.48
41312;BME280;27061;41.648;24.568;2023-04-06T05:23:37;85108.56;;;2.22;79.09
41312;BME280;27061;41.648;24.568;2023-04-06T05:26:05;85116.81;;;2.37;79.02
41312;BME280;27061;41.648;24.568;2023-04-06T05:28:32;85096.31;;;2.30;79.70
41312;BME280;27061;41.648;24.568;2023-04-06T05:31:00;85035.44;;;1.93;80.01
41312;BME280;27061;41.648;24.568;2023-04-06T05:33:34;85108.69;;;2.59;80.36
41312;BME280;27061;41.648;24.568;2023-04-06T05:36:06;85099.81;;;2.67;80.77
41312;BME280;27061;41.648;24.568;2023-04-06T05:38:38;85103.94;;;2.80;80.86
41312;BME280;27061;41.648;24.568;2023-04-06T05:41:16;85108.72;;;2.77;81.54
41312;BME280;27061;41.648;24.568;2023-04-06T05:43:43;85103.28;;;2.85;81.66
41312;BME280;27061;41.648;24.568;2023-04-06T05:46:18;85065.00;;;2.73;81.80
41312;BME280;27061;41.648;24.568;2023-04-06T05:48:45;85034.22;;;2.48;81.82
41312;BME280;27061;41.648;24.568;2023-04-06T05:51:13;85105.34;;;3.05;82.42
41312;BME280;27061;41.648;24.568;2023-04-06T05:53:46;85032.84;;;2.68;81.96
41312;BME280;27061;41.648;24.568;2023-04-06T05:56:13;85108.06;;;3.29;81.87
41312;BME280;27061;41.648;24.568;2023-04-06T05:58:40;85068.41;;;3.14;81.13
41312;BME280;27061;41.648;24.568;2023-04-06T06:01:10;85024.00;;;2.91;80.94
41312;BME280;27061;41.648;24.568;2023-04-06T06:03:41;85098.47;;;3.61;80.62
41312;BME280;27061;41.648;24.568;2023-04-06T06:06:08;85100.53;;;3.64;82.06
41312;BME280;27061;41.648;24.568;2023-04-06T06:09:05;85047.19;;;3.39;81.73
41312;BME280;27061;41.648;24.568;2023-04-06T06:11:37;85072.47;;;3.66;79.68
41312;BME280;27061;41.648;24.568;2023-04-06T06:14:05;85097.03;;;3.92;77.76
41312;BME280;27061;41.648;24.568;2023-04-06T06:16:36;85089.53;;;3.87;80.58
41312;BME280;27061;41.648;24.568;2023-04-06T06:19:05;85092.91;;;4.03;82.32
41312;BME280;27061;41.648;24.568;2023-04-06T06:21:33;85077.88;;;4.00;81.38
41312;BME280;27061;41.648;24.568;2023-04-06T06:24:01;85063.53;;;3.88;80.72
41312;BME280;27061;41.648;24.568;2023-04-06T06:26:28;85086.69;;;4.25;79.96
41312;BME280;27061;41.648;24.568;2023-04-06T06:28:56;85057.25;;;4.16;80.44
41312;BME280;27061;41.648;24.568;2023-04-06T06:31:23;85031.97;;;4.09;78.34
41312;BME280;27061;41.648;24.568;2023-04-06T06:33:53;85070.19;;;4.37;80.32
41312;BME280;27061;41.648;24.568;2023-04-06T06:36:20;85055.13;;;4.40;80.94
41312;BME280;27061;41.648;24.568;2023-04-06T06:38:48;85091.97;;;4.68;81.38
41312;BME280;27061;41.648;24.568;2023-04-06T06:41:17;85066.72;;;4.51;81.47
41312;BME280;27061;41.648;24.568;2023-04-06T06:43:44;85101.47;;;4.89;79.62
41312;BME280;27061;41.648;24.568;2023-04-06T06:46:12;85079.63;;;4.73;79.20
41312;BME280;27061;41.648;24.568;2023-04-06T06:48:40;85106.88;;;5.05;80.47
41312;BME280;27061;41.648;24.568;2023-04-06T06:51:07;85102.69;;;5.14;80.01
41312;BME280;27061;41.648;24.568;2023-04-06T06:53:39;85104.69;;;5.22;79.85
41312;BME280;27061;41.648;24.568;2023-04-06T06:56:06;85102.63;;;5.27;79.23
41312;BME280;27061;41.648;24.568;2023-04-06T06:58:33;85111.47;;;5.37;82.33
41312;BME280;27061;41.648;24.568;2023-04-06T07:01:03;85097.09;;;5.31;83.63
41312;BME280;27061;41.648;24.568;2023-04-06T07:03:33;85107.91;;;5.51;83.34
41312;BME280;27061;41.648;24.568;2023-04-06T07:06:00;85106.53;;;5.54;82.72
41312;BME280;27061;41.648;24.568;2023-04-06T07:08:27;85111.91;;;5.68;82.13
41312;BME280;27061;41.648;24.568;2023-04-06T07:10:54;85083.88;;;5.56;81.04
41312;BME280;27061;41.648;24.568;2023-04-06T07:13:23;85087.97;;;5.57;73.52
41312;BME280;27061;41.648;24.568;2023-04-06T07:15:54;85094.13;;;5.61;80.53
41312;BME280;27061;41.648;24.568;2023-04-06T07:18:22;85091.94;;;5.76;80.19
41312;BME280;27061;41.648;24.568;2023-04-06T07:20:49;85121.31;;;5.98;74.71
41312;BME280;27061;41.648;24.568;2023-04-06T07:23:17;85115.75;;;6.04;78.86
41312;BME280;27061;41.648;24.568;2023-04-06T07:25:44;85114.94;;;6.17;78.61
41312;BME280;27061;41.648;24.568;2023-04-06T07:28:11;85118.31;;;6.24;74.74
41312;BME280;27061;41.648;24.568;2023-04-06T07:30:39;85101.41;;;5.95;68.23
41312;BME280;27061;41.648;24.568;2023-04-06T07:33:08;85108.81;;;6.13;74.46
41312;BME280;27061;41.648;24.568;2023-04-06T07:35:36;85089.69;;;5.99;74.24
41312;BME280;27061;41.648;24.568;2023-04-06T07:38:04;85118.22;;;6.34;72.06
41312;BME280;27061;41.648;24.568;2023-04-06T07:40:33;85122.28;;;6.39;75.81
41312;BME280;27061;41.648;24.568;2023-04-06T07:43:00;85088.03;;;6.28;75.88
41312;BME280;27061;41.648;24.568;2023-04-06T07:45:29;85111.13;;;6.53;75.30
41312;BME280;27061;41.648;24.568;2023-04-06T07:47:57;85099.56;;;6.45;76.46
41312;BME280;27061;41.648;24.568;2023-04-06T07:50:27;85102.88;;;6.55;79.05
41312;BME280;27061;41.648;24.568;2023-04-06T07:52:55;85112.97;;;6.73;79.19
41312;BME280;27061;41.648;24.568;2023-04-06T07:55:23;85123.06;;;6.93;77.62
41312;BME280;27061;41.648;24.568;2023-04-06T07:57:50;85085.44;;;6.77;74.83
41312;BME280;27061;41.648;24.568;2023-04-06T08:00:17;85086.47;;;6.45;68.79
41312;BME280;27061;41.648;24.568;2023-04-06T08:02:45;85107.38;;;6.79;72.00
41312;BME280;27061;41.648;24.568;2023-04-06T08:05:12;85114.75;;;6.99;76.08
41312;BME280;27061;41.648;24.568;2023-04-06T08:07:39;85111.88;;;7.09;77.63
41312;BME280;27061;41.648;24.568;2023-04-06T08:10:07;85113.13;;;7.18;77.34
41312;BME280;27061;41.648;24.568;2023-04-06T08:12:34;85099.38;;;7.16;77.95
41312;BME280;27061;41.648;24.568;2023-04-06T08:15:01;85102.00;;;7.24;73.91
41312;BME280;27061;41.648;24.568;2023-04-06T08:17:31;85048.09;;;6.90;74.43
41312;BME280;27061;41.648;24.568;2023-04-06T08:19:58;85109.25;;;7.48;78.00
41312;BME280;27061;41.648;24.568;2023-04-06T08:22:25;85064.25;;;7.19;73.18
41312;BME280;27061;41.648;24.568;2023-04-06T08:24:53;85040.41;;;7.01;74.08
41312;BME280;27061;41.648;24.568;2023-04-06T08:27:20;85095.47;;;7.50;72.76
41312;BME280;27061;41.648;24.568;2023-04-06T08:29:49;85092.44;;;7.68;72.27
41312;BME280;27061;41.648;24.568;2023-04-06T08:32:17;85075.97;;;7.64;72.41
41312;BME280;27061;41.648;24.568;2023-04-06T08:34:46;85104.53;;;7.88;73.76
41312;BME280;27061;41.648;24.568;2023-04-06T08:37:13;85071.69;;;7.73;65.84
41312;BME280;27061;41.648;24.568;2023-04-06T08:39:40;85040.97;;;7.57;69.98
41312;BME280;27061;41.648;24.568;2023-04-06T08:42:13;85105.56;;;8.11;68.78
41312;BME280;27061;41.648;24.568;2023-04-06T08:44:44;85099.28;;;8.15;68.27
41312;BME280;27061;41.648;24.568;2023-04-06T08:47:12;85097.84;;;8.18;72.44
41312;BME280;27061;41.648;24.568;2023-04-06T08:49:40;85096.28;;;8.29;72.61
41312;BME280;27061;41.648;24.568;2023-04-06T08:52:10;85105.03;;;8.43;69.71
41312;BME280;27061;41.648;24.568;2023-04-06T08:54:38;85060.53;;;8.25;68.19
41312;BME280;27061;41.648;24.568;2023-04-06T08:57:05;85108.06;;;8.66;70.64
41312;BME280;27061;41.648;24.568;2023-04-06T08:59:33;85101.16;;;8.67;72.96
41312;BME280;27061;41.648;24.568;2023-04-06T09:02:03;85042.47;;;8.34;73.49
41312;BME280;27061;41.648;24.568;2023-04-06T09:04:33;85058.47;;;8.62;73.88
41312;BME280;27061;41.648;24.568;2023-04-06T09:07:05;85075.47;;;8.77;75.85
41312;BME280;27061;41.648;24.568;2023-04-06T09:09:32;85085.66;;;8.85;74.37
41312;BME280;27061;41.648;24.568;2023-04-06T09:11:59;85022.06;;;8.56;73.77
41312;BME280;27061;41.648;24.568;2023-04-06T09:14:36;85008.13;;;8.62;70.54
41312;BME280;27061;41.648;24.568;2023-04-06T09:17:08;85090.41;;;9.23;69.39
41312;BME280;27061;41.648;24.568;2023-04-06T09:19:47;85065.75;;;9.13;61.05
41312;BME280;27061;41.648;24.568;2023-04-06T09:22:14;85095.78;;;9.31;65.00
41312;BME280;27061;41.648;24.568;2023-04-06T09:24:47;85029.69;;;8.88;66.33
41312;BME280;27061;41.648;24.568;2023-04-06T09:27:15;85066.41;;;9.15;67.05
41312;BME280;27061;41.648;24.568;2023-04-06T09:29:43;84981.38;;;8.56;66.18
41312;BME280;27061;41.648;24.568;2023-04-06T09:32:11;85083.28;;;9.34;65.07
41312;BME280;27061;41.648;24.568;2023-04-06T09:34:38;85086.75;;;9.33;65.17
41312;BME280;27061;41.648;24.568;2023-04-06T09:37:32;85052.09;;;9.07;64.48
41312;BME280;27061;41.648;24.568;2023-04-06T09:40:06;85034.00;;;8.44;63.02
41312;BME280;27061;41.648;24.568;2023-04-06T09:42:34;85078.78;;;8.84;61.40
41312;BME280;27061;41.648;24.568;2023-04-06T09:45:03;84993.09;;;8.18;61.69
41312;BME280;27061;41.648;24.568;2023-04-06T09:47:31;84983.34;;;8.23;61.12
41312;BME280;27061;41.648;24.568;2023-04-06T09:50:00;85068.84;;;8.62;63.81
41312;BME280;27061;41.648;24.568;2023-04-06T09:52:48;85079.22;;;8.96;58.18
41312;BME280;27061;41.648;24.568;2023-04-06T09:55:30;85039.50;;;8.44;57.58
41312;BME280;27061;41.648;24.568;2023-04-06T09:58:04;85076.78;;;8.43;53.12
41312;BME280;27061;41.648;24.568;2023-04-06T10:00:43;85088.81;;;8.23;53.58
41312;BME280;27061;41.648;24.568;2023-04-06T10:06:10;85063.75;;;7.96;57.62
41312;BME280;27061;41.648;24.568;2023-04-06T10:08:40;85085.69;;;8.04;56.41
41312;BME280;27061;41.648;24.568;2023-04-06T10:11:11;85084.34;;;8.01;57.45
41312;BME280;27061;41.648;24.568;2023-04-06T10:13:38;85089.63;;;7.72;60.90
41312;BME280;27061;41.648;24.568;2023-04-06T10:16:06;85080.78;;;7.64;57.82
41312;BME280;27061;41.648;24.568;2023-04-06T10:18:34;85019.44;;;7.24;61.39
41312;BME280;27061;41.648;24.568;2023-04-06T10:21:16;85054.59;;;7.65;64.22
41312;BME280;27061;41.648;24.568;2023-04-06T10:23:59;85015.31;;;7.23;60.47
41312;BME280;27061;41.648;24.568;2023-04-06T10:26:27;85081.81;;;7.87;58.44
41312;BME280;27061;41.648;24.568;2023-04-06T10:28:54;85040.94;;;7.59;58.96
41312;BME280;27061;41.648;24.568;2023-04-06T10:31:26;84964.88;;;6.90;58.24
41312;BME280;27061;41.648;24.568;2023-04-06T10:34:01;85071.75;;;7.69;57.82
41312;BME280;27061;41.648;24.568;2023-04-06T10:36:33;85068.53;;;7.55;60.91
41312;BME280;27061;41.648;24.568;2023-04-06T10:39:03;84983.41;;;6.93;59.74
41312;BME280;27061;41.648;24.568;2023-04-06T10:41:41;85068.53;;;7.55;56.79
41312;BME280;27061;41.648;24.568;2023-04-06T10:44:17;84981.66;;;6.72;60.90
41312;BME280;27061;41.648;24.568;2023-04-06T10:46:57;85066.19;;;7.28;60.20
41312;BME280;27061;41.648;24.568;2023-04-06T10:49:27;85069.97;;;7.52;61.67
41312;BME280;27061;41.648;24.568;2023-04-06T10:51:55;85071.41;;;7.47;63.03
41312;BME280;27061;41.648;24.568;2023-04-06T10:54:24;85046.97;;;7.22;64.26
41312;BME280;27061;41.648;24.568;2023-04-06T10:56:52;85019.13;;;6.97;64.43
41312;BME280;27061;41.648;24.568;2023-04-06T10:59:20;85064.66;;;7.40;62.15
41312;BME280;27061;41.648;24.568;2023-04-06T11:01:48;85057.13;;;7.34;62.71
41312;BME280;27061;41.648;24.568;2023-04-06T11:04:17;84956.44;;;6.55;59.74
41312;BME280;27061;41.648;24.568;2023-04-06T11:06:49;85059.66;;;7.01;59.02
41312;BME280;27061;41.648;24.568;2023-04-06T11:09:24;85069.06;;;7.18;61.30
41312;BME280;27061;41.648;24.568;2023-04-06T11:11:53;85061.38;;;7.27;62.75
41312;BME280;27061;41.648;24.568;2023-04-06T11:14:21;85029.28;;;7.09;64.74
41312;BME280;27061;41.648;24.568;2023-04-06T11:16:48;85011.72;;;6.86;64.13
41312;BME280;27061;41.648;24.568;2023-04-06T11:19:19;85059.28;;;7.29;62.29
41312;BME280;27061;41.648;24.568;2023-04-06T11:21:47;85052.75;;;7.04;61.78
41312;BME280;27061;41.648;24.568;2023-04-06T11:26:56;85053.84;;;7.23;61.64
41312;BME280;27061;41.648;24.568;2023-04-06T11:29:26;84991.25;;;6.73;59.96
41312;BME280;27061;41.648;24.568;2023-04-06T11:32:00;85055.28;;;7.20;62.17
41312;BME280;27061;41.648;24.568;2023-04-06T11:34:35;85052.41;;;7.28;60.50
41312;BME280;27061;41.648;24.568;2023-04-06T11:37:09;85018.50;;;6.93;61.45
41312;BME280;27061;41.648;24.568;2023-04-06T11:39:39;85052.44;;;7.26;62.06
41312;BME280;27061;41.648;24.568;2023-04-06T11:42:07;84924.69;;;6.13;60.02
41312;BME280;27061;41.648;24.568;2023-04-06T11:44:44;85036.41;;;6.90;61.43
41312;BME280;27061;41.648;24.568;2023-04-06T11:47:15;85027.63;;;6.79;63.33
41312;BME280;27061;41.648;24.568;2023-04-06T11:49:43;85006.38;;;6.74;62.99
41312;BME280;27061;41.648;24.568;2023-04-06T11:52:18;85038.41;;;6.97;62.89
41312;BME280;27061;41.648;24.568;2023-04-06T11:54:47;85049.94;;;7.08;58.02
41312;BME280;27061;41.648;24.568;2023-04-06T11:57:16;85050.59;;;7.11;61.60
41312;BME280;27061;41.648;24.568;2023-04-06T11:59:44;85048.50;;;7.11;58.68
41312;BME280;27061;41.648;24.568;2023-04-06T12:02:11;85042.69;;;6.84;60.56
41312;BME280;27061;41.648;24.568;2023-04-06T12:04:39;85015.34;;;6.70;57.51
41312;BME280;27061;41.648;24.568;2023-04-06T12:07:06;85041.91;;;6.92;62.30
41312;BME280;27061;41.648;24.568;2023-04-06T12:09:33;85038.63;;;6.79;61.22
41312;BME280;27061;41.648;24.568;2023-04-06T12:12:01;85005.34;;;6.46;63.39
41312;BME280;27061;41.648;24.568;2023-04-06T12:14:29;85005.75;;;6.69;63.27
41312;BME280;27061;41.648;24.568;2023-04-06T12:16:57;84930.09;;;6.19;61.87
41312;BME280;27061;41.648;24.568;2023-04-06T12:19:25;84992.25;;;6.49;60.46
41312;BME280;27061;41.648;24.568;2023-04-06T12:21:53;84995.44;;;6.70;61.35
41312;BME280;27061;41.648;24.568;2023-04-06T12:24:21;85028.09;;;6.96;62.61
41312;BME280;27061;41.648;24.568;2023-04-06T12:26:48;85028.63;;;7.07;61.64
41312;BME280;27061;41.648;24.568;2023-04-06T12:29:25;85039.47;;;7.19;64.09
41312;BME280;27061;41.648;24.568;2023-04-06T12:31:52;85038.69;;;7.24;63.38
41312;BME280;27061;41.648;24.568;2023-04-06T12:34:20;84993.06;;;6.90;64.62
41312;BME280;27061;41.648;24.568;2023-04-06T12:36:47;84996.59;;;6.85;64.40
41312;BME280;27061;41.648;24.568;2023-04-06T12:39:14;85026.19;;;7.31;61.47
41312;BME280;27061;41.648;24.568;2023-04-06T12:41:43;85029.53;;;7.40;69.11
41312;BME280;27061;41.648;24.568;2023-04-06T12:44:10;84914.44;;;6.58;70.00
41312;BME280;27061;41.648;24.568;2023-04-06T12:46:38;85035.44;;;7.59;71.33
41312;BME280;27061;41.648;24.568;2023-04-06T12:49:05;85018.78;;;7.67;71.57
41312;BME280;27061;41.648;24.568;2023-04-06T12:51:33;85002.28;;;7.63;72.11
41312;BME280;27061;41.648;24.568;2023-04-06T12:54:00;85022.09;;;7.73;71.21
41312;BME280;27061;41.648;24.568;2023-04-06T12:56:27;85018.63;;;7.75;69.28
41312;BME280;27061;41.648;24.568;2023-04-06T12:58:54;84981.03;;;7.59;66.50
41312;BME280;27061;41.648;24.568;2023-04-06T13:01:22;85006.53;;;7.58;69.50
41312;BME280;27061;41.648;24.568;2023-04-06T13:03:49;85035.03;;;7.83;69.08
41312;BME280;27061;41.648;24.568;2023-04-06T13:06:16;85030.88;;;7.84;68.57
41312;BME280;27061;41.648;24.568;2023-04-06T13:08:43;85014.66;;;7.66;68.11
41312;BME280;27061;41.648;24.568;2023-04-06T13:11:10;84987.28;;;7.56;68.35
41312;BME280;27061;41.648;24.568;2023-04-06T13:13:38;85032.88;;;7.88;68.19
41312;BME280;27061;41.648;24.568;2023-04-06T13:16:07;84987.38;;;7.50;66.07
41312;BME280;27061;41.648;24.568;2023-04-06T13:18:35;85035.03;;;7.83;65.25
41312;BME280;27061;41.648;24.568;2023-04-06T13:21:06;85004.53;;;7.52;65.50